Aérodrome :
LOGIN :

S'inscrire | Disclaimer

   EN    FR    IT 

 










Légende :    VFR   VFR Marginal   IFR   IFR Intensif   IFR Très Intensif
Visi : 
Plafond : 
>= 8 km
>= 3000ft
5 à 8 km
1000 à 3000 ft
1500m à 5 km
500 à 1000 ft
800 à 1500m
200 à 500 ft
< 800m
< 200 ft
Symboles :   Orages  Brouillard  Fortes neiges  Fortes précipitations  Vent > 20 kt
SIGMETs :   Divers  Orages  Givrage  Turbulence  Onde Orograph.  Cendres Volcan.







- Altitude de l'aérodrome : 63 ft
- Code IATA : BZM


EHWO - Woensdrecht Airbase

DERNIER METAR :
  • 191017Z AUTO 29011KT 240V320 9999 DZ FEW013 SCT031 BKN045 07/05 Q1019 BLU

METARs EXPIRÉS :
  • 191010Z AUTO 30011KT 240V330 9999 DZRA FEW013 SCT022 BKN026 08/04 Q1019 WHT
  • 191008Z AUTO 29010KT 250V330 9999 FEW020 SCT024 BKN029 08/04 Q1019 WHT
  • 190955Z AUTO 29010KT 240V330 9999 FEW031 SCT036 BKN069 08/05 Q1019 BLU
  • 190925Z AUTO 29007KT 230V310 9999 FEW073 08/04 Q1019 BLU
  • 190855Z AUTO 29007KT 250V340 9999 SCT068 BKN074 07/04 Q1019 BLU
  • 190825Z AUTO 30007KT 230V360 9999 -RA FEW030 SCT035 BKN042 07/04 Q1018 RERA REDZ BLU
  • 190755Z AUTO 29005KT 230V310 9999 FEW015CB BKN028 BKN031 OVC081 06/04 Q1018 BLU

Prévision TAF périmée.
Pas de NOTAMs connus pour ce terrain.



MET'MAP, la Météo Aéronautique d'un coup d'oeil ! - Copyright ORBIFLY Décembre 2007 - Disclaimer

ORBIFLY MET'MAP TEAM :

Programmation & Développement : Alexandra Zaïnal
Conception & Développement : Baudouin d'Aumeries
Co-Programmation & Développement : Marc-Olivier Méhu
Soutien technique & logistique : Manuel Goepfert

Contact : metmap@orbifly.com




SOURCES & CREDITS :

   NOAA